sensor_id;sensor_type;location;lat;lon;timestamp;pressure;altitude;pressure_sealevel;temperature;humidity
62655;BME280;48717;55.556;37.816;2022-09-23T00:01:16;99256.47;;;9.58;99.29
62655;BME280;48717;55.556;37.816;2022-09-23T00:03:45;99235.50;;;9.43;99.31
62655;BME280;48717;55.556;37.816;2022-09-23T00:06:14;99248.63;;;9.47;99.54
62655;BME280;48717;55.556;37.816;2022-09-23T00:08:42;99259.09;;;9.58;99.05
62655;BME280;48717;55.556;37.816;2022-09-23T00:11:16;99251.22;;;9.53;99.21
62655;BME280;48717;55.556;37.816;2022-09-23T00:13:46;99271.38;;;9.61;98.66
62655;BME280;48717;55.556;37.816;2022-09-23T00:16:20;99265.22;;;9.60;99.24
62655;BME280;48717;55.556;37.816;2022-09-23T00:18:48;99225.91;;;9.35;98.88
62655;BME280;48717;55.556;37.816;2022-09-23T00:21:19;99268.78;;;9.53;99.24
62655;BME280;48717;55.556;37.816;2022-09-23T00:23:48;99260.91;;;9.47;99.00
62655;BME280;48717;55.556;37.816;2022-09-23T00:26:17;99267.94;;;9.48;99.44
62655;BME280;48717;55.556;37.816;2022-09-23T00:28:45;99256.53;;;9.43;99.04
62655;BME280;48717;55.556;37.816;2022-09-23T00:31:16;99247.78;;;9.42;99.49
62655;BME280;48717;55.556;37.816;2022-09-23T00:33:44;99274.91;;;9.55;98.87
62655;BME280;48717;55.556;37.816;2022-09-23T00:36:14;99267.91;;;9.54;98.68
62655;BME280;48717;55.556;37.816;2022-09-23T00:38:43;99262.63;;;9.51;98.39
62655;BME280;48717;55.556;37.816;2022-09-23T00:41:11;99260.97;;;9.37;98.38
62655;BME280;48717;55.556;37.816;2022-09-23T00:43:53;99271.44;;;9.47;98.49
62655;BME280;48717;55.556;37.816;2022-09-23T00:46:25;99285.47;;;9.46;98.81
62655;BME280;48717;55.556;37.816;2022-09-23T00:48:59;99272.38;;;9.39;98.93
62655;BME280;48717;55.556;37.816;2022-09-23T00:51:35;99266.25;;;9.31;98.83
62655;BME280;48717;55.556;37.816;2022-09-23T00:54:05;99245.28;;;9.22;99.27
62655;BME280;48717;55.556;37.816;2022-09-23T00:56:33;99231.31;;;9.04;100.00
62655;BME280;48717;55.556;37.816;2022-09-23T00:59:02;99242.69;;;9.11;100.00
62655;BME280;48717;55.556;37.816;2022-09-23T01:01:29;99276.78;;;9.26;100.00
62655;BME280;48717;55.556;37.816;2022-09-23T01:03:57;99246.22;;;9.07;100.00
62655;BME280;48717;55.556;37.816;2022-09-23T01:06:24;99243.63;;;8.99;100.00
62655;BME280;48717;55.556;37.816;2022-09-23T01:08:52;99250.63;;;9.03;100.00
62655;BME280;48717;55.556;37.816;2022-09-23T01:24:46;99243.56;;;9.08;100.00
62655;BME280;48717;55.556;37.816;2022-09-23T01:33:51;99268.97;;;9.14;100.00
62655;BME280;48717;55.556;37.816;2022-09-23T01:36:33;99275.09;;;9.13;100.00
62655;BME280;48717;55.556;37.816;2022-09-23T01:39:09;99266.41;;;9.03;100.00
62655;BME280;48717;55.556;37.816;2022-09-23T01:44:57;99270.72;;;9.15;100.00
62655;BME280;48717;55.556;37.816;2022-09-23T01:47:41;99261.09;;;9.06;100.00
62655;BME280;48717;55.556;37.816;2022-09-23T01:50:16;99262.84;;;9.07;100.00
62655;BME280;48717;55.556;37.816;2022-09-23T01:53:14;99274.22;;;9.16;100.00
62655;BME280;48717;55.556;37.816;2022-09-23T01:55:48;99264.59;;;9.13;100.00
62655;BME280;48717;55.556;37.816;2022-09-23T02:01:04;99273.34;;;9.13;100.00
62655;BME280;48717;55.556;37.816;2022-09-23T02:03:40;99273.34;;;9.17;100.00
62655;BME280;48717;55.556;37.816;2022-09-23T02:06:31;99241.88;;;8.92;100.00
62655;BME280;48717;55.556;37.816;2022-09-23T02:09:10;99264.56;;;9.18;99.99
62655;BME280;48717;55.556;37.816;2022-09-23T02:11:39;99255.84;;;9.09;99.82
62655;BME280;48717;55.556;37.816;2022-09-23T02:14:09;99262.84;;;9.17;99.45
62655;BME280;48717;55.556;37.816;2022-09-23T02:16:45;99261.06;;;9.22;99.08
62655;BME280;48717;55.556;37.816;2022-09-23T02:19:21;99254.06;;;9.14;99.09
62655;BME280;48717;55.556;37.816;2022-09-23T02:21:58;99266.31;;;9.20;98.70
62655;BME280;48717;55.556;37.816;2022-09-23T02:24:29;99276.84;;;9.22;98.57
62655;BME280;48717;55.556;37.816;2022-09-23T02:29:34;99248.84;;;9.05;98.73
62655;BME280;48717;55.556;37.816;2022-09-23T02:37:26;99268.06;;;9.18;99.11
62655;BME280;48717;55.556;37.816;2022-09-23T02:40:32;99268.09;;;9.17;99.82
62655;BME280;48717;55.556;37.816;2022-09-23T02:43:05;99271.56;;;9.22;99.82
62655;BME280;48717;55.556;37.816;2022-09-23T02:45:34;99250.56;;;9.12;99.89
62655;BME280;48717;55.556;37.816;2022-09-23T02:48:08;99272.47;;;9.18;100.00
62655;BME280;48717;55.556;37.816;2022-09-23T02:50:39;99225.22;;;8.91;100.00
62655;BME280;48717;55.556;37.816;2022-09-23T02:53:06;99275.09;;;9.14;100.00
62655;BME280;48717;55.556;37.816;2022-09-23T02:55:33;99251.47;;;9.04;100.00
62655;BME280;48717;55.556;37.816;2022-09-23T02:58:01;99244.47;;;9.03;100.00
62655;BME280;48717;55.556;37.816;2022-09-23T03:05:57;99245.34;;;9.00;100.00
62655;BME280;48717;55.556;37.816;2022-09-23T03:11:07;99261.94;;;9.11;100.00
62655;BME280;48717;55.556;37.816;2022-09-23T03:14:01;99270.69;;;9.20;100.00
62655;BME280;48717;55.556;37.816;2022-09-23T03:17:06;99278.56;;;9.23;100.00
62655;BME280;48717;55.556;37.816;2022-09-23T03:22:15;99240.94;;;9.08;100.00
62655;BME280;48717;55.556;37.816;2022-09-23T03:24:44;99273.28;;;9.32;100.00
62655;BME280;48717;55.556;37.816;2022-09-23T03:27:24;99266.25;;;9.34;99.60
62655;BME280;48717;55.556;37.816;2022-09-23T03:29:55;99279.38;;;9.37;99.30
62655;BME280;48717;55.556;37.816;2022-09-23T03:32:25;99247.00;;;9.20;99.54
62655;BME280;48717;55.556;37.816;2022-09-23T03:34:58;99247.00;;;9.20;99.41
62655;BME280;48717;55.556;37.816;2022-09-23T03:37:32;99247.00;;;9.20;99.39
62655;BME280;48717;55.556;37.816;2022-09-23T03:42:36;99263.63;;;9.33;99.75
62655;BME280;48717;55.556;37.816;2022-09-23T03:45:06;99248.75;;;9.24;99.38
62655;BME280;48717;55.556;37.816;2022-09-23T03:47:36;99234.75;;;9.19;99.44
62655;BME280;48717;55.556;37.816;2022-09-23T03:50:06;99260.13;;;9.32;99.73
62655;BME280;48717;55.556;37.816;2022-09-23T03:52:33;99234.69;;;9.28;99.83
62655;BME280;48717;55.556;37.816;2022-09-23T03:55:00;99231.22;;;9.20;99.52
62655;BME280;48717;55.556;37.816;2022-09-23T03:57:28;99238.22;;;9.27;99.74
62655;BME280;48717;55.556;37.816;2022-09-23T03:59:56;99252.22;;;9.38;99.58
62655;BME280;48717;55.556;37.816;2022-09-23T04:02:23;99241.69;;;9.38;98.91
62655;BME280;48717;55.556;37.816;2022-09-23T04:04:51;99240.81;;;9.35;99.08
62655;BME280;48717;55.556;37.816;2022-09-23T04:07:18;99248.69;;;9.41;99.45
62655;BME280;48717;55.556;37.816;2022-09-23T04:09:46;99239.00;;;9.42;99.83
62655;BME280;48717;55.556;37.816;2022-09-23T04:12:15;99211.94;;;9.24;100.00
62655;BME280;48717;55.556;37.816;2022-09-23T04:14:43;99241.66;;;9.42;99.74
62655;BME280;48717;55.556;37.816;2022-09-23T04:17:11;99214.53;;;9.32;99.73
62655;BME280;48717;55.556;37.816;2022-09-23T04:19:39;99244.22;;;9.51;99.33
62655;BME280;48717;55.556;37.816;2022-09-23T04:22:06;99207.44;;;9.42;99.47
62655;BME280;48717;55.556;37.816;2022-09-23T04:24:35;99196.13;;;9.30;99.40
62655;BME280;48717;55.556;37.816;2022-09-23T04:27:04;99198.75;;;9.30;99.47
62655;BME280;48717;55.556;37.816;2022-09-23T04:29:31;99225.78;;;9.54;99.75
62655;BME280;48717;55.556;37.816;2022-09-23T04:31:59;99231.00;;;9.60;99.58
62655;BME280;48717;55.556;37.816;2022-09-23T04:34:26;99166.28;;;9.34;98.74
62655;BME280;48717;55.556;37.816;2022-09-23T04:36:54;99193.38;;;9.49;98.64
62655;BME280;48717;55.556;37.816;2022-09-23T04:39:22;99208.13;;;9.69;98.64
62655;BME280;48717;55.556;37.816;2022-09-23T04:41:51;99215.13;;;9.73;97.43
62655;BME280;48717;55.556;37.816;2022-09-23T04:44:19;99217.69;;;9.84;97.31
62655;BME280;48717;55.556;37.816;2022-09-23T04:46:47;99190.53;;;9.74;95.99
62655;BME280;48717;55.556;37.816;2022-09-23T04:49:15;99211.56;;;9.80;95.38
62655;BME280;48717;55.556;37.816;2022-09-23T04:51:44;99236.91;;;9.98;95.26
62655;BME280;48717;55.556;37.816;2022-09-23T04:54:12;99237.75;;;10.02;94.72
62655;BME280;48717;55.556;37.816;2022-09-23T04:56:41;99194.94;;;9.76;94.39
62655;BME280;48717;55.556;37.816;2022-09-23T04:59:08;99224.56;;;10.02;94.72
62655;BME280;48717;55.556;37.816;2022-09-23T05:01:35;99220.97;;;10.11;93.92
62655;BME280;48717;55.556;37.816;2022-09-23T05:04:06;99198.25;;;10.00;93.16
62655;BME280;48717;55.556;37.816;2022-09-23T05:06:34;99213.97;;;10.06;93.20
62655;BME280;48717;55.556;37.816;2022-09-23T05:09:04;99209.59;;;10.05;93.22
62655;BME280;48717;55.556;37.816;2022-09-23T05:11:32;99235.84;;;10.19;92.76
62655;BME280;48717;55.556;37.816;2022-09-23T05:14:00;99233.16;;;10.24;92.88
62655;BME280;48717;55.556;37.816;2022-09-23T05:16:27;99197.28;;;10.09;92.22
62655;BME280;48717;55.556;37.816;2022-09-23T05:18:55;99223.47;;;10.28;92.49
62655;BME280;48717;55.556;37.816;2022-09-23T05:21:25;99216.50;;;10.19;91.89
62655;BME280;48717;55.556;37.816;2022-09-23T05:23:55;99220.00;;;10.23;91.43
62655;BME280;48717;55.556;37.816;2022-09-23T05:26:27;99179.88;;;9.92;91.64
62655;BME280;48717;55.556;37.816;2022-09-23T05:28:56;99224.31;;;10.28;91.97
62655;BME280;48717;55.556;37.816;2022-09-23T05:31:26;99230.47;;;10.32;91.68
62655;BME280;48717;55.556;37.816;2022-09-23T05:33:58;99228.66;;;10.37;91.00
62655;BME280;48717;55.556;37.816;2022-09-23T05:36:26;99227.69;;;10.46;90.65
62655;BME280;48717;55.556;37.816;2022-09-23T05:38:54;99213.66;;;10.47;90.66
62655;BME280;48717;55.556;37.816;2022-09-23T05:41:23;99226.66;;;10.64;90.05
62655;BME280;48717;55.556;37.816;2022-09-23T05:43:52;99232.72;;;10.73;88.93
62655;BME280;48717;55.556;37.816;2022-09-23T05:46:22;99208.13;;;10.69;88.23
62655;BME280;48717;55.556;37.816;2022-09-23T05:48:50;99189.72;;;10.67;87.74
62655;BME280;48717;55.556;37.816;2022-09-23T05:51:21;99203.59;;;10.82;88.22
62655;BME280;48717;55.556;37.816;2022-09-23T05:53:56;99211.28;;;11.01;87.87
62655;BME280;48717;55.556;37.816;2022-09-23T05:56:26;99197.91;;;11.16;86.83
62655;BME280;48717;55.556;37.816;2022-09-23T05:58:56;99183.66;;;11.30;85.96
62655;BME280;48717;55.556;37.816;2022-09-23T06:01:25;99202.16;;;11.85;83.15
62655;BME280;48717;55.556;37.816;2022-09-23T06:03:55;99212.03;;;12.29;82.14
62655;BME280;48717;55.556;37.816;2022-09-23T06:06:27;99211.16;;;12.75;78.63
62655;BME280;48717;55.556;37.816;2022-09-23T06:08:56;99213.13;;;13.10;76.45
62655;BME280;48717;55.556;37.816;2022-09-23T06:11:32;99187.41;;;13.16;74.99
62655;BME280;48717;55.556;37.816;2022-09-23T06:14:00;99189.72;;;13.32;75.13
62655;BME280;48717;55.556;37.816;2022-09-23T06:16:30;99206.59;;;13.26;73.72
62655;BME280;48717;55.556;37.816;2022-09-23T06:18:59;99206.16;;;13.05;74.33
62655;BME280;48717;55.556;37.816;2022-09-23T06:21:37;99200.56;;;13.19;74.72
62655;BME280;48717;55.556;37.816;2022-09-23T06:24:05;99197.81;;;13.24;73.84
62655;BME280;48717;55.556;37.816;2022-09-23T06:26:33;99177.91;;;13.08;73.36
62655;BME280;48717;55.556;37.816;2022-09-23T06:29:01;99203.28;;;13.16;73.01
62655;BME280;48717;55.556;37.816;2022-09-23T06:31:29;99231.59;;;13.13;73.01
62655;BME280;48717;55.556;37.816;2022-09-23T06:33:57;99216.19;;;12.89;72.95
62655;BME280;48717;55.556;37.816;2022-09-23T06:36:37;99213.78;;;12.77;74.21
62655;BME280;48717;55.556;37.816;2022-09-23T06:39:14;99226.94;;;12.82;74.33
62655;BME280;48717;55.556;37.816;2022-09-23T06:41:43;99226.22;;;12.73;73.93
62655;BME280;48717;55.556;37.816;2022-09-23T06:44:14;99223.69;;;12.67;74.21
62655;BME280;48717;55.556;37.816;2022-09-23T06:46:42;99225.38;;;12.71;74.22
62655;BME280;48717;55.556;37.816;2022-09-23T06:49:10;99209.38;;;12.77;74.37
62655;BME280;48717;55.556;37.816;2022-09-23T06:51:39;99213.94;;;12.69;74.28
62655;BME280;48717;55.556;37.816;2022-09-23T06:54:07;99179.69;;;12.63;73.09
62655;BME280;48717;55.556;37.816;2022-09-23T06:56:34;99214.19;;;13.02;72.31
62655;BME280;48717;55.556;37.816;2022-09-23T06:59:08;99212.16;;;13.14;70.93
62655;BME280;48717;55.556;37.816;2022-09-23T07:01:35;99220.66;;;13.28;70.58
62655;BME280;48717;55.556;37.816;2022-09-23T07:04:03;99183.16;;;13.09;69.37
62655;BME280;48717;55.556;37.816;2022-09-23T07:06:30;99191.38;;;13.38;67.98
62655;BME280;48717;55.556;37.816;2022-09-23T07:08:57;99165.56;;;13.46;67.50
62655;BME280;48717;55.556;37.816;2022-09-23T07:11:24;99131.78;;;13.57;65.60
62655;BME280;48717;55.556;37.816;2022-09-23T07:13:52;99207.19;;;14.50;63.34
62655;BME280;48717;55.556;37.816;2022-09-23T07:16:20;99196.47;;;15.18;60.26
62655;BME280;48717;55.556;37.816;2022-09-23T07:18:47;99186.38;;;15.58;57.53
62655;BME280;48717;55.556;37.816;2022-09-23T07:21:16;99197.25;;;16.33;55.61
62655;BME280;48717;55.556;37.816;2022-09-23T07:23:45;99187.50;;;16.83;51.48
62655;BME280;48717;55.556;37.816;2022-09-23T07:26:17;99187.28;;;16.89;51.09
62655;BME280;48717;55.556;37.816;2022-09-23T07:28:45;99185.41;;;16.91;51.14
62655;BME280;48717;55.556;37.816;2022-09-23T07:31:16;99187.03;;;16.72;51.71
62655;BME280;48717;55.556;37.816;2022-09-23T07:34:03;99191.06;;;16.33;52.72
62655;BME280;48717;55.556;37.816;2022-09-23T07:36:56;99189.69;;;15.93;53.53
62655;BME280;48717;55.556;37.816;2022-09-23T07:41:13;99187.34;;;15.27;56.05
62655;BME280;48717;55.556;37.816;2022-09-23T07:44:48;99090.34;;;13.90;58.76
62655;BME280;48717;55.556;37.816;2022-09-23T07:47:15;99155.25;;;14.08;60.00
62655;BME280;48717;55.556;37.816;2022-09-23T07:49:43;99158.88;;;14.05;61.04
62655;BME280;48717;55.556;37.816;2022-09-23T07:52:11;99190.97;;;14.28;61.63
62655;BME280;48717;55.556;37.816;2022-09-23T07:54:38;99179.41;;;14.30;61.53
62655;BME280;48717;55.556;37.816;2022-09-23T07:57:06;99181.09;;;14.33;60.85
62655;BME280;48717;55.556;37.816;2022-09-23T07:59:33;99171.44;;;14.30;60.93
62655;BME280;48717;55.556;37.816;2022-09-23T08:02:00;99185.31;;;14.42;61.19
62655;BME280;48717;55.556;37.816;2022-09-23T08:04:30;99181.88;;;14.38;60.74
62655;BME280;48717;55.556;37.816;2022-09-23T08:07:02;99189.69;;;14.43;61.71
62655;BME280;48717;55.556;37.816;2022-09-23T08:09:35;99177.69;;;14.29;61.48
62655;BME280;48717;55.556;37.816;2022-09-23T08:12:12;99198.84;;;14.31;61.29
62655;BME280;48717;55.556;37.816;2022-09-23T08:14:42;99194.75;;;14.19;61.50
62655;BME280;48717;55.556;37.816;2022-09-23T08:17:13;99163.72;;;13.51;63.23
62655;BME280;48717;55.556;37.816;2022-09-23T08:19:41;99198.00;;;13.57;64.47
62655;BME280;48717;55.556;37.816;2022-09-23T08:22:09;99199.97;;;13.48;65.75
62655;BME280;48717;55.556;37.816;2022-09-23T08:24:38;99196.66;;;13.38;65.60
62655;BME280;48717;55.556;37.816;2022-09-23T08:27:05;99191.63;;;13.25;67.04
62655;BME280;48717;55.556;37.816;2022-09-23T08:29:32;99166.81;;;12.90;65.88
62655;BME280;48717;55.556;37.816;2022-09-23T08:32:01;99200.53;;;12.78;66.45
62655;BME280;48717;55.556;37.816;2022-09-23T08:34:31;99153.34;;;12.57;67.03
62655;BME280;48717;55.556;37.816;2022-09-23T08:37:01;99179.56;;;12.69;66.63
62655;BME280;48717;55.556;37.816;2022-09-23T08:39:51;99075.00;;;12.07;66.29
62655;BME280;48717;55.556;37.816;2022-09-23T08:42:25;99155.09;;;12.58;65.75
62655;BME280;48717;55.556;37.816;2022-09-23T08:44:57;99166.31;;;12.71;65.53
62655;BME280;48717;55.556;37.816;2022-09-23T08:47:31;99185.50;;;12.81;65.41
62655;BME280;48717;55.556;37.816;2022-09-23T08:50:13;99193.00;;;13.02;65.31
62655;BME280;48717;55.556;37.816;2022-09-23T08:52:54;99163.09;;;12.97;63.42
62655;BME280;48717;55.556;37.816;2022-09-23T08:55:41;99199.44;;;13.31;63.47
62655;BME280;48717;55.556;37.816;2022-09-23T08:58:35;99161.50;;;13.31;63.10
62655;BME280;48717;55.556;37.816;2022-09-23T09:06:35;99197.19;;;13.92;61.92
62655;BME280;48717;55.556;37.816;2022-09-23T09:09:29;99181.72;;;13.73;61.56
62655;BME280;48717;55.556;37.816;2022-09-23T09:12:19;99199.59;;;13.65;62.58
62655;BME280;48717;55.556;37.816;2022-09-23T09:15:04;99208.59;;;13.57;63.76
62655;BME280;48717;55.556;37.816;2022-09-23T09:17:36;99204.94;;;13.63;63.94
62655;BME280;48717;55.556;37.816;2022-09-23T09:25:56;99180.59;;;13.83;63.22
62655;BME280;48717;55.556;37.816;2022-09-23T09:29:18;99039.13;;;13.18;62.68
62655;BME280;48717;55.556;37.816;2022-09-23T09:32:35;99151.94;;;14.00;62.43
62655;BME280;48717;55.556;37.816;2022-09-23T09:35:13;99140.28;;;14.07;62.34
62655;BME280;48717;55.556;37.816;2022-09-23T09:37:50;99145.06;;;14.26;61.65
62655;BME280;48717;55.556;37.816;2022-09-23T09:40:19;99157.94;;;14.40;61.74
62655;BME280;48717;55.556;37.816;2022-09-23T09:42:48;99126.22;;;14.36;61.40
62655;BME280;48717;55.556;37.816;2022-09-23T09:45:23;99149.53;;;14.57;60.83
62655;BME280;48717;55.556;37.816;2022-09-23T09:50:45;99163.56;;;14.94;60.27
62655;BME280;48717;55.556;37.816;2022-09-23T09:53:22;99164.88;;;15.09;58.22
62655;BME280;48717;55.556;37.816;2022-09-23T09:56:03;99169.75;;;15.23;57.45
62655;BME280;48717;55.556;37.816;2022-09-23T09:58:55;99089.41;;;15.16;56.01
62655;BME280;48717;55.556;37.816;2022-09-23T10:02:27;99158.16;;;16.61;54.30
62655;BME280;48717;55.556;37.816;2022-09-23T10:05:02;99137.94;;;17.27;50.86
62655;BME280;48717;55.556;37.816;2022-09-23T10:07:32;99128.47;;;17.64;49.35
62655;BME280;48717;55.556;37.816;2022-09-23T10:10:18;99141.84;;;18.28;48.13
62655;BME280;48717;55.556;37.816;2022-09-23T10:13:25;99143.06;;;19.20;45.35
62655;BME280;48717;55.556;37.816;2022-09-23T10:16:41;99140.47;;;19.55;44.46
62655;BME280;48717;55.556;37.816;2022-09-23T10:19:35;99125.69;;;19.29;42.96
62655;BME280;48717;55.556;37.816;2022-09-23T10:22:17;99133.63;;;18.92;44.22
62655;BME280;48717;55.556;37.816;2022-09-23T10:24:51;99134.75;;;18.27;44.73
62655;BME280;48717;55.556;37.816;2022-09-23T10:27:34;99144.41;;;17.43;47.20
62655;BME280;48717;55.556;37.816;2022-09-23T10:30:22;99138.63;;;17.09;47.63
62655;BME280;48717;55.556;37.816;2022-09-23T10:32:52;99141.72;;;16.97;48.13
62655;BME280;48717;55.556;37.816;2022-09-23T10:35:22;99139.06;;;16.97;48.23
62655;BME280;48717;55.556;37.816;2022-09-23T10:37:55;99138.19;;;16.73;49.34
62655;BME280;48717;55.556;37.816;2022-09-23T10:46:29;99115.03;;;15.73;50.97
62655;BME280;48717;55.556;37.816;2022-09-23T10:49:30;99125.66;;;15.46;50.48
62655;BME280;48717;55.556;37.816;2022-09-23T11:03:18;99104.47;;;14.55;51.66
62655;BME280;48717;55.556;37.816;2022-09-23T11:06:09;99107.00;;;14.60;52.41
62655;BME280;48717;55.556;37.816;2022-09-23T11:12:13;99062.03;;;14.55;51.10
62655;BME280;48717;55.556;37.816;2022-09-23T11:15:12;99110.75;;;14.84;50.35
62655;BME280;48717;55.556;37.816;2022-09-23T11:20:53;99079.13;;;14.75;51.16
62655;BME280;48717;55.556;37.816;2022-09-23T11:23:56;99103.59;;;14.86;50.92
62655;BME280;48717;55.556;37.816;2022-09-23T11:29:54;99095.44;;;14.93;50.00
62655;BME280;48717;55.556;37.816;2022-09-23T11:37:47;99064.34;;;16.30;46.97
62655;BME280;48717;55.556;37.816;2022-09-23T11:43:27;99069.69;;;17.24;45.06
62655;BME280;48717;55.556;37.816;2022-09-23T11:46:26;99067.66;;;18.16;43.18
62655;BME280;48717;55.556;37.816;2022-09-23T11:54:20;99094.44;;;17.71;44.54
62655;BME280;48717;55.556;37.816;2022-09-23T11:57:02;99065.94;;;17.06;45.85
62655;BME280;48717;55.556;37.816;2022-09-23T12:02:19;99077.97;;;15.70;49.66
62655;BME280;48717;55.556;37.816;2022-09-23T12:05:09;99109.00;;;15.40;51.03
62655;BME280;48717;55.556;37.816;2022-09-23T12:07:50;99106.69;;;15.01;52.05
62655;BME280;48717;55.556;37.816;2022-09-23T12:10:51;99099.28;;;14.82;53.57
62655;BME280;48717;55.556;37.816;2022-09-23T12:13:27;99095.47;;;14.61;53.92
62655;BME280;48717;55.556;37.816;2022-09-23T12:22:14;99091.00;;;14.31;55.36
62655;BME280;48717;55.556;37.816;2022-09-23T12:25:11;99080.56;;;14.25;55.66
62655;BME280;48717;55.556;37.816;2022-09-23T12:27:47;99020.88;;;13.78;55.33
62655;BME280;48717;55.556;37.816;2022-09-23T12:30:29;99068.63;;;14.08;56.49
62655;BME280;48717;55.556;37.816;2022-09-23T12:33:07;99057.44;;;13.99;55.24
62655;BME280;48717;55.556;37.816;2022-09-23T12:35:44;99065.78;;;14.16;55.45
62655;BME280;48717;55.556;37.816;2022-09-23T12:41:46;99020.41;;;13.95;54.51
62655;BME280;48717;55.556;37.816;2022-09-23T12:44:39;99077.09;;;14.23;53.83
62655;BME280;48717;55.556;37.816;2022-09-23T12:49:41;99068.88;;;14.32;54.59
62655;BME280;48717;55.556;37.816;2022-09-23T12:58:35;99041.72;;;14.24;53.97
62655;BME280;48717;55.556;37.816;2022-09-23T13:01:37;98987.28;;;13.79;54.85
62655;BME280;48717;55.556;37.816;2022-09-23T13:04:05;99053.50;;;14.14;54.35
62655;BME280;48717;55.556;37.816;2022-09-23T13:07:14;99035.44;;;14.27;54.11
62655;BME280;48717;55.556;37.816;2022-09-23T13:09:48;98983.00;;;14.06;53.57
62655;BME280;48717;55.556;37.816;2022-09-23T13:12:21;99053.25;;;14.53;52.66
62655;BME280;48717;55.556;37.816;2022-09-23T13:18:50;98970.88;;;14.58;52.05
62655;BME280;48717;55.556;37.816;2022-09-23T13:27:03;99043.56;;;15.90;49.42
62655;BME280;48717;55.556;37.816;2022-09-23T13:32:30;99044.22;;;15.72;49.64
62655;BME280;48717;55.556;37.816;2022-09-23T13:35:02;99046.03;;;15.71;49.86
62655;BME280;48717;55.556;37.816;2022-09-23T13:40:07;99041.81;;;15.38;50.64
62655;BME280;48717;55.556;37.816;2022-09-23T13:42:38;99018.47;;;14.93;51.23
62655;BME280;48717;55.556;37.816;2022-09-23T13:45:11;99028.31;;;14.89;52.57
62655;BME280;48717;55.556;37.816;2022-09-23T13:47:42;99036.53;;;14.81;53.29
62655;BME280;48717;55.556;37.816;2022-09-23T13:50:18;98970.78;;;14.32;53.22
62655;BME280;48717;55.556;37.816;2022-09-23T13:52:51;99018.13;;;14.45;54.16
62655;BME280;48717;55.556;37.816;2022-09-23T13:55:33;99006.50;;;14.19;55.24
62655;BME280;48717;55.556;37.816;2022-09-23T13:58:19;98994.94;;;13.90;56.45
62655;BME280;48717;55.556;37.816;2022-09-23T14:00:47;98995.19;;;13.80;57.27
62655;BME280;48717;55.556;37.816;2022-09-23T14:03:16;99012.75;;;13.84;58.04
62655;BME280;48717;55.556;37.816;2022-09-23T14:05:44;99005.44;;;13.61;58.67
62655;BME280;48717;55.556;37.816;2022-09-23T14:08:13;99019.91;;;13.48;59.08
62655;BME280;48717;55.556;37.816;2022-09-23T14:10:43;99021.22;;;13.29;59.88
62655;BME280;48717;55.556;37.816;2022-09-23T14:13:29;99023.25;;;13.18;60.72
62655;BME280;48717;55.556;37.816;2022-09-23T14:16:02;99024.41;;;13.08;61.76
62655;BME280;48717;55.556;37.816;2022-09-23T14:18:44;99022.81;;;12.99;62.68
62655;BME280;48717;55.556;37.816;2022-09-23T14:21:34;99024.66;;;12.97;63.13
62655;BME280;48717;55.556;37.816;2022-09-23T14:26:54;98988.81;;;12.44;64.32
62655;BME280;48717;55.556;37.816;2022-09-23T14:29:24;98968.94;;;12.25;64.51
62655;BME280;48717;55.556;37.816;2022-09-23T14:32:04;98988.00;;;12.40;64.42
62655;BME280;48717;55.556;37.816;2022-09-23T14:37:14;99009.91;;;12.47;64.91
62655;BME280;48717;55.556;37.816;2022-09-23T14:42:51;98962.06;;;12.18;65.28
62655;BME280;48717;55.556;37.816;2022-09-23T14:45:25;99003.94;;;12.37;65.99
62655;BME280;48717;55.556;37.816;2022-09-23T14:48:03;98978.81;;;12.16;65.92
62655;BME280;48717;55.556;37.816;2022-09-23T14:50:32;98997.91;;;12.30;66.07
62655;BME280;48717;55.556;37.816;2022-09-23T14:53:28;98988.28;;;12.27;66.20
62655;BME280;48717;55.556;37.816;2022-09-23T14:58:45;98988.59;;;12.12;67.03
62655;BME280;48717;55.556;37.816;2022-09-23T15:04:27;98982.59;;;12.02;67.71
62655;BME280;48717;55.556;37.816;2022-09-23T15:07:01;98987.13;;;11.95;67.89
62655;BME280;48717;55.556;37.816;2022-09-23T15:09:37;98955.06;;;11.70;68.21
62655;BME280;48717;55.556;37.816;2022-09-23T15:12:12;98983.88;;;11.81;68.75
62655;BME280;48717;55.556;37.816;2022-09-23T15:14:44;98984.91;;;11.73;69.40
62655;BME280;48717;55.556;37.816;2022-09-23T15:19:55;98977.34;;;11.55;69.95
62655;BME280;48717;55.556;37.816;2022-09-23T15:22:24;98982.56;;;11.58;70.24
62655;BME280;48717;55.556;37.816;2022-09-23T15:24:52;98974.03;;;11.43;70.56
62655;BME280;48717;55.556;37.816;2022-09-23T15:27:31;98980.94;;;11.49;71.22
62655;BME280;48717;55.556;37.816;2022-09-23T15:30:17;98981.00;;;11.47;70.97
62655;BME280;48717;55.556;37.816;2022-09-23T15:32:45;98964.56;;;11.31;71.72
62655;BME280;48717;55.556;37.816;2022-09-23T15:35:17;98955.94;;;11.21;72.19
62655;BME280;48717;55.556;37.816;2022-09-23T15:37:48;98976.75;;;11.39;71.48
62655;BME280;48717;55.556;37.816;2022-09-23T15:40:21;98974.25;;;11.31;72.45
62655;BME280;48717;55.556;37.816;2022-09-23T15:42:53;98979.53;;;11.31;72.28
62655;BME280;48717;55.556;37.816;2022-09-23T15:45:33;98984.81;;;11.31;73.01
62655;BME280;48717;55.556;37.816;2022-09-23T15:48:09;98960.47;;;11.13;73.21
62655;BME280;48717;55.556;37.816;2022-09-23T15:50:38;98883.84;;;10.69;72.77
62655;BME280;48717;55.556;37.816;2022-09-23T15:53:10;98984.81;;;11.31;73.42
62655;BME280;48717;55.556;37.816;2022-09-23T15:55:39;98983.13;;;11.27;73.94
62655;BME280;48717;55.556;37.816;2022-09-23T15:58:06;98983.06;;;11.30;73.14
62655;BME280;48717;55.556;37.816;2022-09-23T16:00:34;98958.59;;;11.21;73.73
62655;BME280;48717;55.556;37.816;2022-09-23T16:03:02;98941.28;;;11.05;73.29
62655;BME280;48717;55.556;37.816;2022-09-23T16:05:37;98833.41;;;10.34;72.73
62655;BME280;48717;55.556;37.816;2022-09-23T16:08:08;98986.66;;;11.26;73.32